sensor_id;sensor_type;location;lat;lon;timestamp;pressure;altitude;pressure_sealevel;temperature;humidity
59289;BME280;45056;47.602;9.886;2023-04-02T00:00:17;92255.75;;;8.08;59.83
59289;BME280;45056;47.602;9.886;2023-04-02T00:02:55;92255.31;;;8.09;59.84
59289;BME280;45056;47.602;9.886;2023-04-02T00:05:37;92247.94;;;8.10;59.88
59289;BME280;45056;47.602;9.886;2023-04-02T00:08:25;92261.06;;;8.12;59.76
59289;BME280;45056;47.602;9.886;2023-04-02T00:10:58;92251.41;;;8.11;59.78
59289;BME280;45056;47.602;9.886;2023-04-02T00:13:32;92259.13;;;8.12;59.69
59289;BME280;45056;47.602;9.886;2023-04-02T00:16:06;92252.50;;;8.13;59.83
59289;BME280;45056;47.602;9.886;2023-04-02T00:18:42;92253.25;;;8.14;59.87
59289;BME280;45056;47.602;9.886;2023-04-02T00:21:21;92262.44;;;8.16;59.84
59289;BME280;45056;47.602;9.886;2023-04-02T00:23:53;92255.06;;;8.17;59.98
59289;BME280;45056;47.602;9.886;2023-04-02T00:26:27;92267.41;;;8.18;59.93
59289;BME280;45056;47.602;9.886;2023-04-02T00:28:57;92266.66;;;8.17;59.83
59289;BME280;45056;47.602;9.886;2023-04-02T00:31:28;92267.09;;;8.16;59.95
59289;BME280;45056;47.602;9.886;2023-04-02T00:34:00;92271.00;;;8.15;59.86
59289;BME280;45056;47.602;9.886;2023-04-02T00:36:32;92267.97;;;8.13;59.77
59289;BME280;45056;47.602;9.886;2023-04-02T00:39:06;92265.69;;;8.11;59.66
59289;BME280;45056;47.602;9.886;2023-04-02T00:41:41;92264.03;;;8.04;59.77
59289;BME280;45056;47.602;9.886;2023-04-02T00:44:15;92270.75;;;8.00;59.92
59289;BME280;45056;47.602;9.886;2023-04-02T00:46:50;92266.66;;;7.95;60.05
59289;BME280;45056;47.602;9.886;2023-04-02T00:49:25;92267.69;;;7.88;60.04
59289;BME280;45056;47.602;9.886;2023-04-02T00:52:02;92268.25;;;7.83;60.12
59289;BME280;45056;47.602;9.886;2023-04-02T00:54:40;92274.53;;;7.80;60.11
59289;BME280;45056;47.602;9.886;2023-04-02T00:57:14;92273.88;;;7.76;60.21
59289;BME280;45056;47.602;9.886;2023-04-02T00:59:54;92277.06;;;7.74;60.33
59289;BME280;45056;47.602;9.886;2023-04-02T01:02:29;92274.03;;;7.72;60.54
59289;BME280;45056;47.602;9.886;2023-04-02T01:05:00;92275.97;;;7.72;60.66
59289;BME280;45056;47.602;9.886;2023-04-02T01:07:52;92279.00;;;7.74;60.56
59289;BME280;45056;47.602;9.886;2023-04-02T01:10:43;92277.78;;;7.75;60.74
59289;BME280;45056;47.602;9.886;2023-04-02T01:13:30;92280.06;;;7.76;60.62
59289;BME280;45056;47.602;9.886;2023-04-02T01:16:13;92279.00;;;7.74;60.67
59289;BME280;45056;47.602;9.886;2023-04-02T01:18:58;92279.44;;;7.72;60.64
59289;BME280;45056;47.602;9.886;2023-04-02T01:21:51;92280.63;;;7.71;60.77
59289;BME280;45056;47.602;9.886;2023-04-02T01:24:29;92288.88;;;7.68;61.00
59289;BME280;45056;47.602;9.886;2023-04-02T01:27:02;92284.34;;;7.64;61.13
59289;BME280;45056;47.602;9.886;2023-04-02T01:29:38;92273.94;;;7.63;61.31
59289;BME280;45056;47.602;9.886;2023-04-02T01:32:13;92275.91;;;7.62;61.35
59289;BME280;45056;47.602;9.886;2023-04-02T01:34:46;92277.09;;;7.61;61.54
59289;BME280;45056;47.602;9.886;2023-04-02T01:37:27;92282.19;;;7.59;61.68
59289;BME280;45056;47.602;9.886;2023-04-02T01:40:21;92277.19;;;7.58;61.62
59289;BME280;45056;47.602;9.886;2023-04-02T01:43:09;92278.09;;;7.55;61.87
59289;BME280;45056;47.602;9.886;2023-04-02T01:45:47;92292.06;;;7.53;61.87
59289;BME280;45056;47.602;9.886;2023-04-02T01:48:18;92283.63;;;7.51;61.88
59289;BME280;45056;47.602;9.886;2023-04-02T01:50:53;92290.25;;;7.50;61.80
59289;BME280;45056;47.602;9.886;2023-04-02T01:53:26;92280.91;;;7.51;61.93
59289;BME280;45056;47.602;9.886;2023-04-02T01:55:59;92277.44;;;7.50;62.07
59289;BME280;45056;47.602;9.886;2023-04-02T01:58:31;92280.16;;;7.50;62.03
59289;BME280;45056;47.602;9.886;2023-04-02T02:01:03;92278.22;;;7.51;62.08
59289;BME280;45056;47.602;9.886;2023-04-02T02:03:37;92296.41;;;7.50;61.91
59289;BME280;45056;47.602;9.886;2023-04-02T02:06:12;92287.97;;;7.48;62.18
59289;BME280;45056;47.602;9.886;2023-04-02T02:08:47;92295.31;;;7.48;62.21
59289;BME280;45056;47.602;9.886;2023-04-02T02:11:20;92297.28;;;7.47;62.22
59289;BME280;45056;47.602;9.886;2023-04-02T02:13:54;92292.59;;;7.48;62.25
59289;BME280;45056;47.602;9.886;2023-04-02T02:16:26;92296.50;;;7.47;62.17
59289;BME280;45056;47.602;9.886;2023-04-02T02:19:00;92288.38;;;7.47;62.23
59289;BME280;45056;47.602;9.886;2023-04-02T02:21:39;92305.72;;;7.49;62.21
59289;BME280;45056;47.602;9.886;2023-04-02T02:24:19;92302.56;;;7.51;62.19
59289;BME280;45056;47.602;9.886;2023-04-02T02:26:57;92297.47;;;7.53;62.06
59289;BME280;45056;47.602;9.886;2023-04-02T02:29:37;92303.97;;;7.56;62.03
59289;BME280;45056;47.602;9.886;2023-04-02T02:32:12;92299.31;;;7.56;62.12
59289;BME280;45056;47.602;9.886;2023-04-02T02:34:55;92301.25;;;7.56;62.15
59289;BME280;45056;47.602;9.886;2023-04-02T02:37:34;92310.13;;;7.56;62.05
59289;BME280;45056;47.602;9.886;2023-04-02T02:40:15;92305.91;;;7.55;62.25
59289;BME280;45056;47.602;9.886;2023-04-02T02:42:51;92304.84;;;7.53;62.48
59289;BME280;45056;47.602;9.886;2023-04-02T02:45:27;92308.00;;;7.51;62.71
59289;BME280;45056;47.602;9.886;2023-04-02T02:48:04;92295.00;;;7.46;62.81
59289;BME280;45056;47.602;9.886;2023-04-02T02:50:39;92304.31;;;7.45;63.06
59289;BME280;45056;47.602;9.886;2023-04-02T02:53:16;92309.72;;;7.45;63.13
59289;BME280;45056;47.602;9.886;2023-04-02T02:55:51;92312.00;;;7.46;63.11
59289;BME280;45056;47.602;9.886;2023-04-02T02:58:27;92307.31;;;7.47;63.04
59289;BME280;45056;47.602;9.886;2023-04-02T03:00:58;92300.72;;;7.48;63.07
59289;BME280;45056;47.602;9.886;2023-04-02T03:03:31;92312.31;;;7.48;63.14
59289;BME280;45056;47.602;9.886;2023-04-02T03:06:03;92310.81;;;7.47;63.48
59289;BME280;45056;47.602;9.886;2023-04-02T03:08:40;92312.44;;;7.45;63.63
59289;BME280;45056;47.602;9.886;2023-04-02T03:11:16;92317.09;;;7.44;63.55
59289;BME280;45056;47.602;9.886;2023-04-02T03:14:01;92322.63;;;7.41;63.81
59289;BME280;45056;47.602;9.886;2023-04-02T03:16:42;92321.97;;;7.36;64.02
59289;BME280;45056;47.602;9.886;2023-04-02T03:19:26;92326.31;;;7.34;63.98
59289;BME280;45056;47.602;9.886;2023-04-02T03:22:07;92324.38;;;7.34;63.96
59289;BME280;45056;47.602;9.886;2023-04-02T03:24:48;92327.50;;;7.33;63.64
59289;BME280;45056;47.602;9.886;2023-04-02T03:27:27;92333.34;;;7.31;63.79
59289;BME280;45056;47.602;9.886;2023-04-02T03:30:20;92332.91;;;7.33;63.83
59289;BME280;45056;47.602;9.886;2023-04-02T03:32:59;92338.31;;;7.33;63.66
59289;BME280;45056;47.602;9.886;2023-04-02T03:35:37;92337.91;;;7.34;63.66
59289;BME280;45056;47.602;9.886;2023-04-02T03:38:15;92338.22;;;7.36;63.84
59289;BME280;45056;47.602;9.886;2023-04-02T03:40:59;92336.28;;;7.37;63.75
59289;BME280;45056;47.602;9.886;2023-04-02T03:43:35;92345.78;;;7.42;63.63
59289;BME280;45056;47.602;9.886;2023-04-02T03:46:19;92348.81;;;7.44;63.59
59289;BME280;45056;47.602;9.886;2023-04-02T03:48:54;92354.53;;;7.46;63.40
59289;BME280;45056;47.602;9.886;2023-04-02T03:51:31;92345.22;;;7.47;63.15
59289;BME280;45056;47.602;9.886;2023-04-02T03:54:02;92347.94;;;7.47;63.27
59289;BME280;45056;47.602;9.886;2023-04-02T03:56:35;92352.16;;;7.48;63.15
59289;BME280;45056;47.602;9.886;2023-04-02T03:59:15;92356.81;;;7.47;63.30
59289;BME280;45056;47.602;9.886;2023-04-02T04:01:58;92358.34;;;7.48;63.32
59289;BME280;45056;47.602;9.886;2023-04-02T04:04:39;92359.84;;;7.49;63.17
59289;BME280;45056;47.602;9.886;2023-04-02T04:07:27;92355.22;;;7.50;63.22
59289;BME280;45056;47.602;9.886;2023-04-02T04:10:02;92359.09;;;7.49;63.30
59289;BME280;45056;47.602;9.886;2023-04-02T04:12:35;92361.81;;;7.49;63.38
59289;BME280;45056;47.602;9.886;2023-04-02T04:15:15;92359.09;;;7.49;63.33
59289;BME280;45056;47.602;9.886;2023-04-02T04:17:55;92357.91;;;7.50;63.33
59289;BME280;45056;47.602;9.886;2023-04-02T04:20:33;92374.91;;;7.50;63.34
59289;BME280;45056;47.602;9.886;2023-04-02T04:23:13;92379.56;;;7.50;63.25
59289;BME280;45056;47.602;9.886;2023-04-02T04:25:56;92372.97;;;7.51;63.46
59289;BME280;45056;47.602;9.886;2023-04-02T04:28:35;92381.81;;;7.51;63.29
59289;BME280;45056;47.602;9.886;2023-04-02T04:31:17;92381.09;;;7.51;63.34
59289;BME280;45056;47.602;9.886;2023-04-02T04:33:56;92383.66;;;7.55;63.33
59289;BME280;45056;47.602;9.886;2023-04-02T04:36:34;92377.38;;;7.58;63.47
59289;BME280;45056;47.602;9.886;2023-04-02T04:39:28;92390.47;;;7.59;63.24
59289;BME280;45056;47.602;9.886;2023-04-02T04:42:06;92392.00;;;7.60;63.34
59289;BME280;45056;47.602;9.886;2023-04-02T04:44:50;92393.94;;;7.60;63.08
59289;BME280;45056;47.602;9.886;2023-04-02T04:47:27;92394.72;;;7.60;63.07
59289;BME280;45056;47.602;9.886;2023-04-02T04:50:06;92402.81;;;7.60;62.97
59289;BME280;45056;47.602;9.886;2023-04-02T04:52:40;92402.81;;;7.60;62.78
59289;BME280;45056;47.602;9.886;2023-04-02T04:55:25;92401.63;;;7.61;62.74
59289;BME280;45056;47.602;9.886;2023-04-02T04:58:00;92408.56;;;7.62;62.74
59289;BME280;45056;47.602;9.886;2023-04-02T05:00:42;92405.84;;;7.62;62.75
59289;BME280;45056;47.602;9.886;2023-04-02T05:03:28;92412.00;;;7.63;62.78
59289;BME280;45056;47.602;9.886;2023-04-02T05:06:08;92404.97;;;7.65;62.68
59289;BME280;45056;47.602;9.886;2023-04-02T05:08:46;92414.19;;;7.68;62.75
59289;BME280;45056;47.602;9.886;2023-04-02T05:11:25;92417.97;;;7.71;62.56
59289;BME280;45056;47.602;9.886;2023-04-02T05:14:03;92421.44;;;7.71;62.48
59289;BME280;45056;47.602;9.886;2023-04-02T05:16:41;92421.00;;;7.73;62.59
59289;BME280;45056;47.602;9.886;2023-04-02T05:19:21;92425.53;;;7.76;62.54
59289;BME280;45056;47.602;9.886;2023-04-02T05:22:01;92429.03;;;7.76;62.61
59289;BME280;45056;47.602;9.886;2023-04-02T05:24:50;92425.84;;;7.78;62.74
59289;BME280;45056;47.602;9.886;2023-04-02T05:27:33;92426.22;;;7.80;62.86
59289;BME280;45056;47.602;9.886;2023-04-02T05:30:30;92436.28;;;7.79;62.77
59289;BME280;45056;47.602;9.886;2023-04-02T05:33:20;92439.28;;;7.82;62.60
59289;BME280;45056;47.602;9.886;2023-04-02T05:35:56;92440.06;;;7.82;62.56
59289;BME280;45056;47.602;9.886;2023-04-02T05:38:30;92441.59;;;7.83;62.46
59289;BME280;45056;47.602;9.886;2023-04-02T05:41:03;92439.19;;;7.85;62.51
59289;BME280;45056;47.602;9.886;2023-04-02T05:43:46;92445.34;;;7.86;62.44
59289;BME280;45056;47.602;9.886;2023-04-02T05:46:19;92437.22;;;7.86;62.30
59289;BME280;45056;47.602;9.886;2023-04-02T05:48:56;92443.53;;;7.83;62.21
59289;BME280;45056;47.602;9.886;2023-04-02T05:51:34;92451.22;;;7.84;62.16
59289;BME280;45056;47.602;9.886;2023-04-02T05:54:17;92452.75;;;7.85;62.11
59289;BME280;45056;47.602;9.886;2023-04-02T05:56:54;92450.66;;;7.89;62.14
59289;BME280;45056;47.602;9.886;2023-04-02T05:59:31;92454.44;;;7.92;61.83
59289;BME280;45056;47.602;9.886;2023-04-02T06:02:15;92458.97;;;7.95;61.88
59289;BME280;45056;47.602;9.886;2023-04-02T06:04:55;92465.94;;;7.96;61.62
59289;BME280;45056;47.602;9.886;2023-04-02T06:07:33;92464.28;;;7.99;61.72
59289;BME280;45056;47.602;9.886;2023-04-02T06:10:13;92470.81;;;8.01;61.95
59289;BME280;45056;47.602;9.886;2023-04-02T06:12:52;92471.00;;;8.07;61.78
59289;BME280;45056;47.602;9.886;2023-04-02T06:15:25;92471.63;;;8.11;61.45
59289;BME280;45056;47.602;9.886;2023-04-02T06:17:59;92472.31;;;8.15;61.47
59289;BME280;45056;47.602;9.886;2023-04-02T06:20:31;92474.88;;;8.19;61.41
59289;BME280;45056;47.602;9.886;2023-04-02T06:23:05;92479.88;;;8.20;61.15
59289;BME280;45056;47.602;9.886;2023-04-02T06:25:45;92483.63;;;8.23;61.11
59289;BME280;45056;47.602;9.886;2023-04-02T06:28:22;92482.75;;;8.26;60.92
59289;BME280;45056;47.602;9.886;2023-04-02T06:31:00;92493.19;;;8.28;60.92
59289;BME280;45056;47.602;9.886;2023-04-02T06:33:34;92495.88;;;8.28;60.83
59289;BME280;45056;47.602;9.886;2023-04-02T06:36:04;92501.31;;;8.28;60.68
59289;BME280;45056;47.602;9.886;2023-04-02T06:38:36;92493.59;;;8.26;60.76
59289;BME280;45056;47.602;9.886;2023-04-02T06:41:14;92499.78;;;8.27;60.83
59289;BME280;45056;47.602;9.886;2023-04-02T06:43:51;92502.50;;;8.27;60.74
59289;BME280;45056;47.602;9.886;2023-04-02T06:46:30;92509.88;;;8.26;60.75
59289;BME280;45056;47.602;9.886;2023-04-02T06:49:13;92506.31;;;8.29;60.83
59289;BME280;45056;47.602;9.886;2023-04-02T06:51:52;92511.59;;;8.33;60.82
59289;BME280;45056;47.602;9.886;2023-04-02T06:54:22;92507.25;;;8.35;60.78
59289;BME280;45056;47.602;9.886;2023-04-02T06:56:53;92506.38;;;8.38;60.70
59289;BME280;45056;47.602;9.886;2023-04-02T06:59:23;92510.06;;;8.45;60.85
59289;BME280;45056;47.602;9.886;2023-04-02T07:01:57;92515.16;;;8.56;60.67
59289;BME280;45056;47.602;9.886;2023-04-02T07:04:30;92518.78;;;8.75;60.64
59289;BME280;45056;47.602;9.886;2023-04-02T07:06:59;92524.84;;;9.01;59.87
59289;BME280;45056;47.602;9.886;2023-04-02T07:09:27;92514.16;;;9.29;59.03
59289;BME280;45056;47.602;9.886;2023-04-02T07:11:55;92521.22;;;9.49;58.45
59289;BME280;45056;47.602;9.886;2023-04-02T07:14:23;92526.38;;;9.56;57.30
59289;BME280;45056;47.602;9.886;2023-04-02T07:16:51;92524.75;;;9.59;56.96
59289;BME280;45056;47.602;9.886;2023-04-02T07:19:21;92530.34;;;9.64;56.77
59289;BME280;45056;47.602;9.886;2023-04-02T07:21:50;92531.97;;;9.84;56.16
59289;BME280;45056;47.602;9.886;2023-04-02T07:24:18;92542.31;;;10.08;55.33
59289;BME280;45056;47.602;9.886;2023-04-02T07:26:46;92526.56;;;10.44;53.64
59289;BME280;45056;47.602;9.886;2023-04-02T07:29:15;92523.16;;;10.99;53.19
59289;BME280;45056;47.602;9.886;2023-04-02T07:31:45;92529.28;;;12.08;51.10
59289;BME280;45056;47.602;9.886;2023-04-02T07:34:13;92530.09;;;12.81;49.05
59289;BME280;45056;47.602;9.886;2023-04-02T07:36:42;92530.47;;;13.13;47.60
59289;BME280;45056;47.602;9.886;2023-04-02T07:39:12;92534.50;;;13.18;46.70
59289;BME280;45056;47.602;9.886;2023-04-02T07:41:54;92537.75;;;12.92;46.60
59289;BME280;45056;47.602;9.886;2023-04-02T07:44:23;92537.25;;;12.54;47.00
59289;BME280;45056;47.602;9.886;2023-04-02T07:46:51;92549.41;;;12.44;47.56
59289;BME280;45056;47.602;9.886;2023-04-02T07:49:19;92543.75;;;13.21;47.26
59289;BME280;45056;47.602;9.886;2023-04-02T07:51:50;92540.34;;;13.65;46.38
59289;BME280;45056;47.602;9.886;2023-04-02T07:54:19;92551.94;;;13.75;45.92
59289;BME280;45056;47.602;9.886;2023-04-02T07:56:47;92546.84;;;13.68;45.18
59289;BME280;45056;47.602;9.886;2023-04-02T07:59:15;92557.50;;;13.51;45.12
59289;BME280;45056;47.602;9.886;2023-04-02T08:01:43;92558.56;;;13.29;45.02
59289;BME280;45056;47.602;9.886;2023-04-02T08:04:16;92555.53;;;13.27;45.13
59289;BME280;45056;47.602;9.886;2023-04-02T08:06:46;92556.84;;;13.86;45.17
59289;BME280;45056;47.602;9.886;2023-04-02T08:09:17;92558.94;;;14.42;44.78
59289;BME280;45056;47.602;9.886;2023-04-02T08:11:45;92568.16;;;14.95;44.65
59289;BME280;45056;47.602;9.886;2023-04-02T08:14:13;92565.81;;;15.56;44.67
59289;BME280;45056;47.602;9.886;2023-04-02T08:16:46;92564.72;;;15.95;43.77
59289;BME280;45056;47.602;9.886;2023-04-02T08:19:17;92564.53;;;15.98;42.14
59289;BME280;45056;47.602;9.886;2023-04-02T08:21:46;92572.03;;;15.77;41.16
59289;BME280;45056;47.602;9.886;2023-04-02T08:24:17;92574.22;;;15.47;40.90
59289;BME280;45056;47.602;9.886;2023-04-02T08:26:48;92574.28;;;15.32;40.59
59289;BME280;45056;47.602;9.886;2023-04-02T08:29:19;92574.53;;;15.07;40.95
59289;BME280;45056;47.602;9.886;2023-04-02T08:31:47;92578.00;;;14.87;41.03
59289;BME280;45056;47.602;9.886;2023-04-02T08:34:15;92581.63;;;14.63;41.18
59289;BME280;45056;47.602;9.886;2023-04-02T08:36:44;92587.63;;;14.47;41.70
59289;BME280;45056;47.602;9.886;2023-04-02T08:39:12;92589.34;;;14.29;41.57
59289;BME280;45056;47.602;9.886;2023-04-02T08:41:48;92590.31;;;14.11;42.43
59289;BME280;45056;47.602;9.886;2023-04-02T08:44:40;92584.09;;;13.95;43.01
59289;BME280;45056;47.602;9.886;2023-04-02T08:47:18;92584.94;;;14.02;42.93
59289;BME280;45056;47.602;9.886;2023-04-02T08:49:56;92577.75;;;14.19;42.96
59289;BME280;45056;47.602;9.886;2023-04-02T08:52:31;92578.97;;;14.33;42.36
59289;BME280;45056;47.602;9.886;2023-04-02T08:55:10;92584.78;;;14.56;42.21
59289;BME280;45056;47.602;9.886;2023-04-02T08:57:55;92579.72;;;15.05;41.92
59289;BME280;45056;47.602;9.886;2023-04-02T09:00:38;92584.81;;;15.60;40.98
59289;BME280;45056;47.602;9.886;2023-04-02T09:03:15;92578.31;;;16.10;40.20
59289;BME280;45056;47.602;9.886;2023-04-02T09:05:49;92584.69;;;16.59;39.06
59289;BME280;45056;47.602;9.886;2023-04-02T09:08:20;92589.63;;;16.93;38.77
59289;BME280;45056;47.602;9.886;2023-04-02T09:10:57;92587.91;;;16.96;38.19
59289;BME280;45056;47.602;9.886;2023-04-02T09:13:33;92602.47;;;16.70;38.43
59289;BME280;45056;47.602;9.886;2023-04-02T09:16:08;92597.53;;;16.42;37.83
59289;BME280;45056;47.602;9.886;2023-04-02T09:18:39;92605.69;;;15.98;38.96
59289;BME280;45056;47.602;9.886;2023-04-02T09:21:32;92604.34;;;15.67;39.09
59289;BME280;45056;47.602;9.886;2023-04-02T09:24:03;92609.38;;;15.48;39.37
59289;BME280;45056;47.602;9.886;2023-04-02T09:26:32;92610.47;;;15.36;40.74
59289;BME280;45056;47.602;9.886;2023-04-02T09:29:24;92618.66;;;15.30;40.63
59289;BME280;45056;47.602;9.886;2023-04-02T09:32:17;92618.34;;;15.07;40.52
59289;BME280;45056;47.602;9.886;2023-04-02T09:35:06;92622.88;;;14.75;41.51
59289;BME280;45056;47.602;9.886;2023-04-02T09:37:38;92624.78;;;14.53;41.70
59289;BME280;45056;47.602;9.886;2023-04-02T09:40:18;92632.94;;;14.33;41.35
59289;BME280;45056;47.602;9.886;2023-04-02T09:43:02;92624.44;;;14.00;41.15
59289;BME280;45056;47.602;9.886;2023-04-02T09:45:40;92628.78;;;13.77;41.65
59289;BME280;45056;47.602;9.886;2023-04-02T09:48:21;92624.63;;;13.67;42.27
59289;BME280;45056;47.602;9.886;2023-04-02T09:51:04;92632.75;;;13.76;42.38
59289;BME280;45056;47.602;9.886;2023-04-02T09:53:36;92634.06;;;13.81;42.48
59289;BME280;45056;47.602;9.886;2023-04-02T09:56:11;92629.53;;;13.78;42.23
59289;BME280;45056;47.602;9.886;2023-04-02T09:58:43;92636.41;;;13.73;41.68
59289;BME280;45056;47.602;9.886;2023-04-02T10:01:27;92644.81;;;13.84;40.56
59289;BME280;45056;47.602;9.886;2023-04-02T10:03:57;92644.53;;;13.97;40.84
59289;BME280;45056;47.602;9.886;2023-04-02T10:06:27;92641.81;;;13.97;40.87
59289;BME280;45056;47.602;9.886;2023-04-02T10:08:57;92644.19;;;13.90;40.84
59289;BME280;45056;47.602;9.886;2023-04-02T10:11:50;92650.47;;;13.81;41.62
59289;BME280;45056;47.602;9.886;2023-04-02T10:14:25;92648.69;;;13.78;42.43
59289;BME280;45056;47.602;9.886;2023-04-02T10:17:06;92658.75;;;13.71;42.88
59289;BME280;45056;47.602;9.886;2023-04-02T10:19:46;92656.94;;;13.68;43.15
59289;BME280;45056;47.602;9.886;2023-04-02T10:22:19;92659.78;;;13.74;43.76
59289;BME280;45056;47.602;9.886;2023-04-02T10:24:50;92649.72;;;13.95;42.47
59289;BME280;45056;47.602;9.886;2023-04-02T10:27:28;92655.03;;;14.14;42.47
59289;BME280;45056;47.602;9.886;2023-04-02T10:30:17;92656.72;;;14.26;41.31
59289;BME280;45056;47.602;9.886;2023-04-02T10:32:58;92664.47;;;14.28;42.13
59289;BME280;45056;47.602;9.886;2023-04-02T10:35:39;92659.72;;;14.28;42.61
59289;BME280;45056;47.602;9.886;2023-04-02T10:38:27;92653.81;;;14.30;42.59
59289;BME280;45056;47.602;9.886;2023-04-02T10:41:15;92659.28;;;14.30;42.71
59289;BME280;45056;47.602;9.886;2023-04-02T10:47:06;92661.34;;;14.50;42.94
59289;BME280;45056;47.602;9.886;2023-04-02T10:49:52;92671.31;;;14.68;42.82
59289;BME280;45056;47.602;9.886;2023-04-02T10:52:37;92663.09;;;14.83;41.64
59289;BME280;45056;47.602;9.886;2023-04-02T10:55:15;92667.31;;;14.99;41.01
59289;BME280;45056;47.602;9.886;2023-04-02T10:57:47;92665.47;;;15.11;40.76
59289;BME280;45056;47.602;9.886;2023-04-02T11:00:22;92666.63;;;15.05;40.54
59289;BME280;45056;47.602;9.886;2023-04-02T11:02:59;92667.81;;;14.98;41.24
59289;BME280;45056;47.602;9.886;2023-04-02T11:05:41;92675.88;;;15.07;40.69
59289;BME280;45056;47.602;9.886;2023-04-02T11:08:17;92677.00;;;15.15;40.33
59289;BME280;45056;47.602;9.886;2023-04-02T11:10:54;92673.97;;;15.13;40.80
59289;BME280;45056;47.602;9.886;2023-04-02T11:13:30;92677.94;;;15.12;41.44
59289;BME280;45056;47.602;9.886;2023-04-02T11:16:04;92685.91;;;15.10;41.74
59289;BME280;45056;47.602;9.886;2023-04-02T11:18:34;92679.66;;;15.10;40.49
59289;BME280;45056;47.602;9.886;2023-04-02T11:21:05;92685.06;;;15.04;40.13
59289;BME280;45056;47.602;9.886;2023-04-02T11:23:50;92686.13;;;14.92;40.19
59289;BME280;45056;47.602;9.886;2023-04-02T11:26:43;92686.69;;;14.66;40.27
59289;BME280;45056;47.602;9.886;2023-04-02T11:29:18;92691.34;;;14.45;40.24
59289;BME280;45056;47.602;9.886;2023-04-02T11:32:10;92690.88;;;14.16;41.01
59289;BME280;45056;47.602;9.886;2023-04-02T11:35:24;92699.78;;;13.87;41.80
59289;BME280;45056;47.602;9.886;2023-04-02T11:44:50;92700.47;;;13.33;43.50
59289;BME280;45056;47.602;9.886;2023-04-02T11:47:20;92697.59;;;13.27;43.82
59289;BME280;45056;47.602;9.886;2023-04-02T11:50:04;92703.53;;;13.25;43.98
59289;BME280;45056;47.602;9.886;2023-04-02T11:52:49;92703.84;;;13.27;44.55
59289;BME280;45056;47.602;9.886;2023-04-02T11:55:28;92696.09;;;13.26;44.46
59289;BME280;45056;47.602;9.886;2023-04-02T12:05:08;92697.44;;;13.94;42.63
59289;BME280;45056;47.602;9.886;2023-04-02T12:07:58;92709.84;;;14.20;42.16
59289;BME280;45056;47.602;9.886;2023-04-02T12:10:55;92707.03;;;14.44;42.38
59289;BME280;45056;47.602;9.886;2023-04-02T12:13:49;92706.63;;;14.66;42.38
59289;BME280;45056;47.602;9.886;2023-04-02T12:16:20;92715.97;;;14.90;42.26
59289;BME280;45056;47.602;9.886;2023-04-02T12:18:52;92715.34;;;15.15;41.03
59289;BME280;45056;47.602;9.886;2023-04-02T12:21:22;92707.97;;;15.22;41.05
59289;BME280;45056;47.602;9.886;2023-04-02T12:23:54;92703.31;;;15.28;41.61
59289;BME280;45056;47.602;9.886;2023-04-02T12:26:29;92714.22;;;15.43;41.97
59289;BME280;45056;47.602;9.886;2023-04-02T12:29:31;92721.56;;;15.72;40.08
59289;BME280;45056;47.602;9.886;2023-04-02T12:31:59;92715.84;;;15.91;38.61
59289;BME280;45056;47.602;9.886;2023-04-02T12:34:29;92720.69;;;16.02;38.12
59289;BME280;45056;47.602;9.886;2023-04-02T12:36:59;92715.19;;;16.02;38.55
59289;BME280;45056;47.602;9.886;2023-04-02T12:39:31;92713.38;;;15.93;38.57
59289;BME280;45056;47.602;9.886;2023-04-02T12:42:00;92721.69;;;15.84;38.95
59289;BME280;45056;47.602;9.886;2023-04-02T12:44:30;92720.97;;;15.83;38.45
59289;BME280;45056;47.602;9.886;2023-04-02T12:46:58;92718.75;;;15.87;37.72
59289;BME280;45056;47.602;9.886;2023-04-02T12:49:33;92728.56;;;15.73;37.27
59289;BME280;45056;47.602;9.886;2023-04-02T12:52:06;92720.75;;;15.46;37.57
59289;BME280;45056;47.602;9.886;2023-04-02T12:54:46;92725.34;;;15.19;38.55
59289;BME280;45056;47.602;9.886;2023-04-02T12:57:29;92723.72;;;14.91;39.37
59289;BME280;45056;47.602;9.886;2023-04-02T13:00:31;92725.03;;;14.66;39.84
59289;BME280;45056;47.602;9.886;2023-04-02T13:03:18;92715.81;;;14.48;39.69
59289;BME280;45056;47.602;9.886;2023-04-02T13:05:52;92723.06;;;14.36;39.46
59289;BME280;45056;47.602;9.886;2023-04-02T13:08:25;92723.72;;;14.31;40.68
59289;BME280;45056;47.602;9.886;2023-04-02T13:10:57;92731.16;;;14.31;42.01
59289;BME280;45056;47.602;9.886;2023-04-02T13:13:32;92731.38;;;14.27;42.85
59289;BME280;45056;47.602;9.886;2023-04-02T13:16:06;92727.28;;;14.22;43.24
59289;BME280;45056;47.602;9.886;2023-04-02T13:19:17;92726.72;;;14.18;43.64
59289;BME280;45056;47.602;9.886;2023-04-02T13:21:51;92727.38;;;14.13;43.76
59289;BME280;45056;47.602;9.886;2023-04-02T13:24:21;92727.09;;;14.11;44.24
59289;BME280;45056;47.602;9.886;2023-04-02T13:26:54;92731.22;;;14.06;44.55
59289;BME280;45056;47.602;9.886;2023-04-02T13:29:25;92728.66;;;14.03;44.66
59289;BME280;45056;47.602;9.886;2023-04-02T13:31:58;92734.13;;;14.03;44.94
59289;BME280;45056;47.602;9.886;2023-04-02T13:34:28;92735.38;;;14.02;44.88
59289;BME280;45056;47.602;9.886;2023-04-02T13:36:57;92730.84;;;13.98;44.88
59289;BME280;45056;47.602;9.886;2023-04-02T13:39:25;92728.47;;;13.91;44.68
59289;BME280;45056;47.602;9.886;2023-04-02T13:41:57;92734.59;;;13.86;44.65
59289;BME280;45056;47.602;9.886;2023-04-02T13:44:29;92731.00;;;13.80;44.96
59289;BME280;45056;47.602;9.886;2023-04-02T13:47:00;92731.94;;;13.77;44.60
59289;BME280;45056;47.602;9.886;2023-04-02T13:49:28;92730.13;;;13.74;44.63
59289;BME280;45056;47.602;9.886;2023-04-02T13:52:00;92734.38;;;13.75;44.72
59289;BME280;45056;47.602;9.886;2023-04-02T13:54:38;92736.34;;;13.74;44.14
59289;BME280;45056;47.602;9.886;2023-04-02T13:57:10;92740.75;;;13.71;44.07
59289;BME280;45056;47.602;9.886;2023-04-02T13:59:39;92735.00;;;13.69;44.00
59289;BME280;45056;47.602;9.886;2023-04-02T14:02:15;92735.19;;;13.66;43.98
59289;BME280;45056;47.602;9.886;2023-04-02T14:04:48;92734.91;;;13.64;44.31
59289;BME280;45056;47.602;9.886;2023-04-02T14:07:27;92735.38;;;13.62;44.18
59289;BME280;45056;47.602;9.886;2023-04-02T14:10:19;92740.84;;;13.62;44.32
59289;BME280;45056;47.602;9.886;2023-04-02T14:13:12;92736.78;;;13.58;44.27